»·PEaware :: N734TD KMRY-KSBA

N734TD :: KMRY-KSBA

FLIGHT INFORMATION

Flight Status: Arrived
Operator: Privately registered:
United States
More flights under this callsign
Pilot: Chris S. (2433)
Aircraft: SOCATA TBM-900
(TBM9)
More flights by this aircraft type
Origin: KMRY Monterey Peninsula
United States
Destination: KSBA Santa Barbara Mun
United States
More flights between these airports :: More routes between these airports
Route: +TORO7 BSR V27 GVO
File this flight plan on PilotEdge
Remarks:
Altitude:
(Current/Filed)
17,000ft
Speed:
(Current/Filed)
270kts
Departed: 05-Feb-19 08:40 AM
Arrived: 05-Feb-19 09:33 AM
Distance/Time
Traveled:
162nm/0:53
Distance/Time
To Go:
Arrived

Flight Plot

Page will automatically refresh every two minutes.

Flight plan parsing failed; only flown route is shown


Map Options




Map Legend


Flown Route
Filed Route
Departure Airport
Arrival Airport
Navaid (VOR, NDB)
Fix

Horizontal Profiles

Position Reports

Time Latitude Longitude Heading Altitude Ground
Speed
05-Feb-19 08:22 36.589046 -121.855324 52 162ft 0kts
05-Feb-19 08:23 36.589046 -121.855324 52 162ft 0kts
05-Feb-19 08:24 36.589046 -121.855324 52 162ft 0kts
05-Feb-19 08:25 36.589046 -121.855324 52 162ft 0kts
05-Feb-19 08:26 36.589046 -121.855324 52 162ft 0kts
05-Feb-19 08:27 36.589046 -121.855324 52 162ft 0kts
05-Feb-19 08:28 36.589046 -121.855324 52 162ft 0kts
05-Feb-19 08:29 36.589046 -121.855324 52 162ft 0kts
05-Feb-19 08:30 36.589047 -121.855324 52 162ft 0kts
05-Feb-19 08:31 36.589047 -121.855324 52 162ft 0kts
05-Feb-19 08:32 36.589047 -121.855324 52 162ft 0kts
05-Feb-19 08:33 36.589047 -121.855324 52 162ft 0kts
05-Feb-19 08:34 36.589619 -121.854620 71 160ft 0kts
05-Feb-19 08:35 36.589619 -121.854620 71 160ft 0kts
05-Feb-19 08:36 36.589619 -121.854620 71 160ft 0kts
05-Feb-19 08:37 36.589619 -121.854620 71 160ft 0kts
05-Feb-19 08:38 36.589693 -121.854289 76 161ft 4kts
05-Feb-19 08:39 36.586476 -121.841525 113 366ft 108kts
05-Feb-19 08:40 36.595771 -121.795792 75 1746ft 168kts
05-Feb-19 08:41 36.612188 -121.743363 72 3828ft 156kts
05-Feb-19 08:42 36.629287 -121.692362 72 5739ft 163kts
05-Feb-19 08:43 36.628982 -121.645007 173 7476ft 146kts
05-Feb-19 08:44 36.587349 -121.645019 184 9419ft 148kts
05-Feb-19 08:45 36.544599 -121.644816 187 11134ft 155kts
05-Feb-19 08:46 36.499483 -121.644537 188 12778ft 164kts
05-Feb-19 08:47 36.469399 -121.644331 189 13956ft 165kts
05-Feb-19 08:48 36.422328 -121.643990 189 15675ft 170kts
05-Feb-19 08:49 36.372304 -121.643704 189 16938ft 197kts
05-Feb-19 08:50 36.309956 -121.643216 187 17019ft 241kts
05-Feb-19 08:51 36.238585 -121.642596 186 16760ft 260kts
05-Feb-19 08:52 36.165816 -121.634292 164 16773ft 274kts
05-Feb-19 08:53 36.095024 -121.597006 165 16760ft 275kts
05-Feb-19 08:54 36.023988 -121.559925 165 16763ft 275kts
05-Feb-19 08:55 35.952826 -121.522865 165 16768ft 275kts
05-Feb-19 08:56 35.881599 -121.485845 165 16783ft 274kts
05-Feb-19 08:57 35.810553 -121.449000 165 16793ft 275kts
05-Feb-19 08:58 35.739124 -121.412022 165 16795ft 275kts
05-Feb-19 08:59 35.686392 -121.384769 165 16795ft 275kts
05-Feb-19 09:00 35.618876 -121.337572 136 16788ft 295kts
05-Feb-19 09:01 35.568653 -121.256897 135 16750ft 296kts
05-Feb-19 09:02 35.518005 -121.176779 135 16752ft 295kts
05-Feb-19 09:03 35.467368 -121.096881 135 16765ft 292kts
05-Feb-19 09:04 35.417169 -121.017871 136 16779ft 289kts
05-Feb-19 09:05 35.367446 -120.939788 136 16793ft 286kts
05-Feb-19 09:06 35.318162 -120.862577 136 16798ft 285kts
05-Feb-19 09:07 35.268668 -120.785199 136 16798ft 285kts
05-Feb-19 09:08 35.211387 -120.721357 150 16660ft 279kts
05-Feb-19 09:09 35.147267 -120.661313 150 15677ft 288kts
05-Feb-19 09:10 35.083698 -120.601959 150 14654ft 282kts
05-Feb-19 09:11 35.020028 -120.542637 149 13131ft 286kts
05-Feb-19 09:12 34.956080 -120.483169 148 11618ft 283kts
05-Feb-19 09:13 34.893288 -120.424883 147 10131ft 276kts
05-Feb-19 09:14 34.832144 -120.368253 147 8877ft 268kts
05-Feb-19 09:15 34.773223 -120.313749 147 7840ft 251kts
05-Feb-19 09:16 34.722843 -120.267200 148 7235ft 202kts
05-Feb-19 09:17 34.677066 -120.225055 147 6843ft 201kts
05-Feb-19 09:18 34.632704 -120.184208 148 6843ft 192kts
05-Feb-19 09:19 34.589667 -120.144637 148 6841ft 190kts
05-Feb-19 09:20 34.546954 -120.105426 148 6848ft 189kts
05-Feb-19 09:21 34.512266 -120.055448 129 6854ft 193kts
05-Feb-19 09:22 34.480078 -120.003525 132 6713ft 185kts
05-Feb-19 09:23 34.450819 -119.960235 132 5843ft 185kts
05-Feb-19 09:24 34.419679 -119.918658 132 5001ft 190kts
05-Feb-19 09:25 34.400698 -119.872190 95 4569ft 130kts
05-Feb-19 09:26 34.398155 -119.827642 91 2515ft 137kts
05-Feb-19 09:27 34.424746 -119.811562 314 1366ft 94kts
05-Feb-19 09:28 34.427459 -119.848156 270 403ft 145kts
05-Feb-19 09:29 34.413865 -119.868163 101 936ft 131kts
05-Feb-19 09:30 34.411645 -119.826758 95 1170ft 120kts
05-Feb-19 09:32 34.427100 -119.818096 299 666ft 92kts
05-Feb-19 09:33 34.427702 -119.845062 270 16ft 38kts
05-Feb-19 09:34 34.428472 -119.845541 66 16ft 1kts
05-Feb-19 09:35 34.429805 -119.842169 65 16ft 11kts
05-Feb-19 09:36 34.429888 -119.841957 63 16ft 0kts
05-Feb-19 09:37 34.429916 -119.841897 59 16ft 2kts
05-Feb-19 09:38 34.431041 -119.838786 69 16ft 10kts
05-Feb-19 09:39 34.432324 -119.835294 359 16ft 7kts
05-Feb-19 09:40 34.432580 -119.835575 249 16ft 0kts
05-Feb-19 09:41 34.432580 -119.835575 249 16ft 0kts
05-Feb-19 09:42 34.432580 -119.835575 249 16ft 0kts
05-Feb-19 09:43 34.432580 -119.835575 249 16ft 0kts

Navigation Log

Ident Type
Flight plan parsing failed, navigation log unavailable